sensor_id;sensor_type;location;lat;lon;timestamp;temperature;humidity
354;DHT22;165;53.592;10.044;2023-01-10T00:02:11;7.20;99.90
354;DHT22;165;53.592;10.044;2023-01-10T00:04:37;7.20;99.90
354;DHT22;165;53.592;10.044;2023-01-10T00:07:02;7.20;99.90
354;DHT22;165;53.592;10.044;2023-01-10T00:09:27;7.20;99.90
354;DHT22;165;53.592;10.044;2023-01-10T00:11:53;7.20;99.90
354;DHT22;165;53.592;10.044;2023-01-10T00:14:18;7.30;99.90
354;DHT22;165;53.592;10.044;2023-01-10T00:16:44;7.20;99.90
354;DHT22;165;53.592;10.044;2023-01-10T00:19:09;7.20;99.90
354;DHT22;165;53.592;10.044;2023-01-10T00:21:35;7.20;99.90
354;DHT22;165;53.592;10.044;2023-01-10T00:24:01;7.20;99.90
354;DHT22;165;53.592;10.044;2023-01-10T00:26:27;7.10;99.90
354;DHT22;165;53.592;10.044;2023-01-10T00:28:52;7.10;99.90
354;DHT22;165;53.592;10.044;2023-01-10T00:31:17;7.10;99.90
354;DHT22;165;53.592;10.044;2023-01-10T00:33:43;7.10;99.90
354;DHT22;165;53.592;10.044;2023-01-10T00:36:09;7.10;99.90
354;DHT22;165;53.592;10.044;2023-01-10T00:38:34;7.10;99.90
354;DHT22;165;53.592;10.044;2023-01-10T00:41:01;7.00;99.90
354;DHT22;165;53.592;10.044;2023-01-10T00:43:27;7.00;99.90
354;DHT22;165;53.592;10.044;2023-01-10T00:45:52;7.00;99.90
354;DHT22;165;53.592;10.044;2023-01-10T00:48:18;6.90;99.90
354;DHT22;165;53.592;10.044;2023-01-10T00:50:43;7.00;99.90
354;DHT22;165;53.592;10.044;2023-01-10T00:53:08;7.00;99.90
354;DHT22;165;53.592;10.044;2023-01-10T00:55:35;7.00;99.90
354;DHT22;165;53.592;10.044;2023-01-10T00:58:00;7.10;99.90
354;DHT22;165;53.592;10.044;2023-01-10T01:00:26;7.10;99.90
354;DHT22;165;53.592;10.044;2023-01-10T01:02:52;7.20;99.90
354;DHT22;165;53.592;10.044;2023-01-10T01:05:18;7.20;99.90
354;DHT22;165;53.592;10.044;2023-01-10T01:07:46;7.20;99.90
354;DHT22;165;53.592;10.044;2023-01-10T01:10:11;7.10;99.90
354;DHT22;165;53.592;10.044;2023-01-10T01:12:37;7.10;99.90
354;DHT22;165;53.592;10.044;2023-01-10T01:15:02;7.10;99.90
354;DHT22;165;53.592;10.044;2023-01-10T01:17:28;7.10;99.90
354;DHT22;165;53.592;10.044;2023-01-10T01:19:53;7.10;99.90
354;DHT22;165;53.592;10.044;2023-01-10T01:22:19;7.10;99.90
354;DHT22;165;53.592;10.044;2023-01-10T01:24:44;7.00;99.90
354;DHT22;165;53.592;10.044;2023-01-10T01:27:09;7.00;99.90
354;DHT22;165;53.592;10.044;2023-01-10T01:29:35;6.90;99.90
354;DHT22;165;53.592;10.044;2023-01-10T01:32:00;6.80;99.90
354;DHT22;165;53.592;10.044;2023-01-10T01:34:26;6.60;99.90
354;DHT22;165;53.592;10.044;2023-01-10T01:36:51;6.60;99.90
354;DHT22;165;53.592;10.044;2023-01-10T01:39:17;6.50;99.90
354;DHT22;165;53.592;10.044;2023-01-10T01:41:42;6.50;99.90
354;DHT22;165;53.592;10.044;2023-01-10T01:44:15;6.40;99.90
354;DHT22;165;53.592;10.044;2023-01-10T01:46:45;6.40;99.90
354;DHT22;165;53.592;10.044;2023-01-10T01:49:15;6.30;99.90
354;DHT22;165;53.592;10.044;2023-01-10T01:51:42;6.40;99.90
354;DHT22;165;53.592;10.044;2023-01-10T01:54:10;6.50;99.90
354;DHT22;165;53.592;10.044;2023-01-10T01:56:40;6.50;99.90
354;DHT22;165;53.592;10.044;2023-01-10T01:59:17;6.50;99.90
354;DHT22;165;53.592;10.044;2023-01-10T02:01:47;6.60;99.90
354;DHT22;165;53.592;10.044;2023-01-10T02:04:17;6.60;99.90
354;DHT22;165;53.592;10.044;2023-01-10T02:06:45;6.60;99.90
354;DHT22;165;53.592;10.044;2023-01-10T02:09:24;6.70;99.90
354;DHT22;165;53.592;10.044;2023-01-10T02:11:53;6.70;99.90
354;DHT22;165;53.592;10.044;2023-01-10T02:14:18;6.60;99.90
354;DHT22;165;53.592;10.044;2023-01-10T02:16:44;6.60;99.90
354;DHT22;165;53.592;10.044;2023-01-10T02:19:28;6.70;99.90
354;DHT22;165;53.592;10.044;2023-01-10T02:22:14;6.70;99.90
354;DHT22;165;53.592;10.044;2023-01-10T02:30:24;6.70;99.90
354;DHT22;165;53.592;10.044;2023-01-10T02:33:10;6.70;99.90
354;DHT22;165;53.592;10.044;2023-01-10T02:35:55;6.80;99.90
354;DHT22;165;53.592;10.044;2023-01-10T02:41:00;6.70;99.90
354;DHT22;165;53.592;10.044;2023-01-10T02:43:33;6.70;99.90
354;DHT22;165;53.592;10.044;2023-01-10T02:46:14;6.70;99.90
354;DHT22;165;53.592;10.044;2023-01-10T02:48:40;6.80;99.90
354;DHT22;165;53.592;10.044;2023-01-10T02:51:20;6.80;99.90
354;DHT22;165;53.592;10.044;2023-01-10T02:53:57;6.80;99.90
354;DHT22;165;53.592;10.044;2023-01-10T03:02:20;6.70;99.90
354;DHT22;165;53.592;10.044;2023-01-10T03:05:15;6.80;99.90
354;DHT22;165;53.592;10.044;2023-01-10T03:08:19;6.70;99.90
354;DHT22;165;53.592;10.044;2023-01-10T03:10:59;6.70;99.90
354;DHT22;165;53.592;10.044;2023-01-10T03:13:30;6.70;99.90
354;DHT22;165;53.592;10.044;2023-01-10T03:15:59;6.70;99.90
354;DHT22;165;53.592;10.044;2023-01-10T03:18:44;6.70;99.90
354;DHT22;165;53.592;10.044;2023-01-10T03:21:12;6.60;99.90
354;DHT22;165;53.592;10.044;2023-01-10T03:23:38;6.60;99.90
354;DHT22;165;53.592;10.044;2023-01-10T03:26:05;6.60;99.90
354;DHT22;165;53.592;10.044;2023-01-10T03:28:42;6.70;99.90
354;DHT22;165;53.592;10.044;2023-01-10T03:31:13;6.60;99.90
354;DHT22;165;53.592;10.044;2023-01-10T03:33:40;6.60;99.90
354;DHT22;165;53.592;10.044;2023-01-10T03:36:44;6.60;99.90
354;DHT22;165;53.592;10.044;2023-01-10T03:39:30;6.60;99.90
354;DHT22;165;53.592;10.044;2023-01-10T03:42:15;6.60;99.90
354;DHT22;165;53.592;10.044;2023-01-10T03:49:48;6.20;99.90
354;DHT22;165;53.592;10.044;2023-01-10T03:52:16;6.10;99.90
354;DHT22;165;53.592;10.044;2023-01-10T03:54:43;6.00;99.90
354;DHT22;165;53.592;10.044;2023-01-10T03:57:15;6.00;99.90
354;DHT22;165;53.592;10.044;2023-01-10T03:59:41;5.90;99.90
354;DHT22;165;53.592;10.044;2023-01-10T04:02:06;5.90;99.90
354;DHT22;165;53.592;10.044;2023-01-10T04:04:32;5.90;99.90
354;DHT22;165;53.592;10.044;2023-01-10T04:06:57;5.80;99.90
354;DHT22;165;53.592;10.044;2023-01-10T04:09:22;5.80;99.90
354;DHT22;165;53.592;10.044;2023-01-10T04:11:48;5.70;99.90
354;DHT22;165;53.592;10.044;2023-01-10T04:14:13;5.70;99.90
354;DHT22;165;53.592;10.044;2023-01-10T04:16:39;5.70;99.90
354;DHT22;165;53.592;10.044;2023-01-10T04:19:04;5.70;99.90
354;DHT22;165;53.592;10.044;2023-01-10T04:21:30;5.70;99.90
354;DHT22;165;53.592;10.044;2023-01-10T04:23:55;5.60;99.90
354;DHT22;165;53.592;10.044;2023-01-10T04:26:21;5.60;99.90
354;DHT22;165;53.592;10.044;2023-01-10T04:28:46;5.60;99.90
354;DHT22;165;53.592;10.044;2023-01-10T04:31:11;5.60;99.90
354;DHT22;165;53.592;10.044;2023-01-10T04:33:37;5.70;99.90
354;DHT22;165;53.592;10.044;2023-01-10T04:36:02;5.60;99.90
354;DHT22;165;53.592;10.044;2023-01-10T04:38:28;5.70;99.90
354;DHT22;165;53.592;10.044;2023-01-10T04:40:55;5.70;99.90
354;DHT22;165;53.592;10.044;2023-01-10T04:43:21;5.80;99.90
354;DHT22;165;53.592;10.044;2023-01-10T04:45:47;5.90;99.90
354;DHT22;165;53.592;10.044;2023-01-10T04:48:12;5.90;99.90
354;DHT22;165;53.592;10.044;2023-01-10T04:50:37;5.90;99.90
354;DHT22;165;53.592;10.044;2023-01-10T04:53:03;5.90;99.90
354;DHT22;165;53.592;10.044;2023-01-10T04:55:28;5.90;99.90
354;DHT22;165;53.592;10.044;2023-01-10T04:57:54;5.90;99.90
354;DHT22;165;53.592;10.044;2023-01-10T05:00:19;6.00;99.90
354;DHT22;165;53.592;10.044;2023-01-10T05:02:45;6.10;99.90
354;DHT22;165;53.592;10.044;2023-01-10T05:05:14;6.10;99.90
354;DHT22;165;53.592;10.044;2023-01-10T05:07:40;6.10;99.90
354;DHT22;165;53.592;10.044;2023-01-10T05:10:07;6.10;99.90
354;DHT22;165;53.592;10.044;2023-01-10T05:12:33;6.20;99.90
354;DHT22;165;53.592;10.044;2023-01-10T05:14:58;6.20;99.90
354;DHT22;165;53.592;10.044;2023-01-10T05:17:24;6.20;99.90
354;DHT22;165;53.592;10.044;2023-01-10T05:19:49;6.20;99.90
354;DHT22;165;53.592;10.044;2023-01-10T05:22:15;6.30;99.90
354;DHT22;165;53.592;10.044;2023-01-10T05:24:40;6.30;99.90
354;DHT22;165;53.592;10.044;2023-01-10T05:27:06;6.30;99.90
354;DHT22;165;53.592;10.044;2023-01-10T05:29:31;6.30;99.90
354;DHT22;165;53.592;10.044;2023-01-10T05:31:57;6.20;99.90
354;DHT22;165;53.592;10.044;2023-01-10T05:34:22;6.30;99.90
354;DHT22;165;53.592;10.044;2023-01-10T05:36:48;6.20;99.90
354;DHT22;165;53.592;10.044;2023-01-10T05:39:13;6.20;99.90
354;DHT22;165;53.592;10.044;2023-01-10T05:41:39;6.20;99.90
354;DHT22;165;53.592;10.044;2023-01-10T05:44:04;6.20;99.90
354;DHT22;165;53.592;10.044;2023-01-10T05:46:30;6.20;99.90
354;DHT22;165;53.592;10.044;2023-01-10T05:48:55;6.20;99.90
354;DHT22;165;53.592;10.044;2023-01-10T05:51:20;6.20;99.90
354;DHT22;165;53.592;10.044;2023-01-10T05:53:46;6.20;99.90
354;DHT22;165;53.592;10.044;2023-01-10T05:56:11;6.20;99.90
354;DHT22;165;53.592;10.044;2023-01-10T05:58:37;6.20;99.90
354;DHT22;165;53.592;10.044;2023-01-10T06:01:02;6.20;99.90
354;DHT22;165;53.592;10.044;2023-01-10T06:03:28;6.10;99.90
354;DHT22;165;53.592;10.044;2023-01-10T06:05:54;6.00;99.90
354;DHT22;165;53.592;10.044;2023-01-10T06:08:20;5.90;99.90
354;DHT22;165;53.592;10.044;2023-01-10T06:10:45;5.90;99.90
354;DHT22;165;53.592;10.044;2023-01-10T06:13:11;5.80;99.90
354;DHT22;165;53.592;10.044;2023-01-10T06:15:36;5.80;99.90
354;DHT22;165;53.592;10.044;2023-01-10T06:18:02;5.70;99.90
354;DHT22;165;53.592;10.044;2023-01-10T06:20:27;5.70;99.90
354;DHT22;165;53.592;10.044;2023-01-10T06:22:53;5.70;99.90
354;DHT22;165;53.592;10.044;2023-01-10T06:25:18;5.60;99.90
354;DHT22;165;53.592;10.044;2023-01-10T06:27:44;5.50;99.90
354;DHT22;165;53.592;10.044;2023-01-10T06:30:11;5.50;99.90
354;DHT22;165;53.592;10.044;2023-01-10T06:32:37;5.50;99.90
354;DHT22;165;53.592;10.044;2023-01-10T06:35:04;5.50;99.90
354;DHT22;165;53.592;10.044;2023-01-10T06:37:29;5.50;99.90
354;DHT22;165;53.592;10.044;2023-01-10T06:39:55;5.50;99.90
354;DHT22;165;53.592;10.044;2023-01-10T06:42:21;5.50;99.90
354;DHT22;165;53.592;10.044;2023-01-10T06:44:46;5.50;99.90
354;DHT22;165;53.592;10.044;2023-01-10T06:47:11;5.50;99.90
354;DHT22;165;53.592;10.044;2023-01-10T06:49:37;5.50;99.90
354;DHT22;165;53.592;10.044;2023-01-10T06:52:02;5.50;99.90
354;DHT22;165;53.592;10.044;2023-01-10T06:54:28;5.50;99.90
354;DHT22;165;53.592;10.044;2023-01-10T06:56:54;5.50;99.90
354;DHT22;165;53.592;10.044;2023-01-10T06:59:19;5.50;99.90
354;DHT22;165;53.592;10.044;2023-01-10T07:01:45;5.50;99.90
354;DHT22;165;53.592;10.044;2023-01-10T07:04:10;5.40;99.90
354;DHT22;165;53.592;10.044;2023-01-10T07:06:37;5.40;99.90
354;DHT22;165;53.592;10.044;2023-01-10T07:09:03;5.40;99.90
354;DHT22;165;53.592;10.044;2023-01-10T07:11:28;5.40;99.90
354;DHT22;165;53.592;10.044;2023-01-10T07:13:54;5.40;99.90
354;DHT22;165;53.592;10.044;2023-01-10T07:16:19;5.40;99.90
354;DHT22;165;53.592;10.044;2023-01-10T07:18:45;5.50;99.90
354;DHT22;165;53.592;10.044;2023-01-10T07:21:10;5.50;99.90
354;DHT22;165;53.592;10.044;2023-01-10T07:23:36;5.60;99.90
354;DHT22;165;53.592;10.044;2023-01-10T07:26:07;5.60;99.90
354;DHT22;165;53.592;10.044;2023-01-10T07:28:33;5.70;99.90
354;DHT22;165;53.592;10.044;2023-01-10T07:31:01;5.70;99.90
354;DHT22;165;53.592;10.044;2023-01-10T07:33:27;5.70;99.90
354;DHT22;165;53.592;10.044;2023-01-10T07:35:53;5.70;99.90
354;DHT22;165;53.592;10.044;2023-01-10T07:38:18;5.80;99.90
354;DHT22;165;53.592;10.044;2023-01-10T07:40:44;5.80;99.90
354;DHT22;165;53.592;10.044;2023-01-10T07:43:09;5.80;99.90
354;DHT22;165;53.592;10.044;2023-01-10T07:45:35;5.70;99.90
354;DHT22;165;53.592;10.044;2023-01-10T07:48:02;5.70;99.90
354;DHT22;165;53.592;10.044;2023-01-10T07:50:31;5.70;99.90
354;DHT22;165;53.592;10.044;2023-01-10T07:52:59;5.70;99.90
354;DHT22;165;53.592;10.044;2023-01-10T07:55:24;5.70;99.90
354;DHT22;165;53.592;10.044;2023-01-10T07:57:50;5.80;99.90
354;DHT22;165;53.592;10.044;2023-01-10T08:00:16;5.90;99.90
354;DHT22;165;53.592;10.044;2023-01-10T08:02:42;6.00;99.90
354;DHT22;165;53.592;10.044;2023-01-10T08:05:08;6.10;99.90
354;DHT22;165;53.592;10.044;2023-01-10T08:07:33;6.20;99.90
354;DHT22;165;53.592;10.044;2023-01-10T08:09:59;6.20;99.90
354;DHT22;165;53.592;10.044;2023-01-10T08:12:24;6.40;99.90
354;DHT22;165;53.592;10.044;2023-01-10T08:14:50;6.40;99.90
354;DHT22;165;53.592;10.044;2023-01-10T08:17:16;6.50;99.90
354;DHT22;165;53.592;10.044;2023-01-10T08:19:41;6.50;99.90
354;DHT22;165;53.592;10.044;2023-01-10T08:22:07;6.60;99.90
354;DHT22;165;53.592;10.044;2023-01-10T08:24:32;6.70;99.90
354;DHT22;165;53.592;10.044;2023-01-10T08:26:58;6.70;99.90
354;DHT22;165;53.592;10.044;2023-01-10T08:29:23;6.70;99.90
354;DHT22;165;53.592;10.044;2023-01-10T08:31:49;6.80;99.90
354;DHT22;165;53.592;10.044;2023-01-10T08:34:14;6.80;99.90
354;DHT22;165;53.592;10.044;2023-01-10T08:36:40;6.90;99.90
354;DHT22;165;53.592;10.044;2023-01-10T08:39:05;6.90;99.90
354;DHT22;165;53.592;10.044;2023-01-10T08:41:31;6.90;99.90
354;DHT22;165;53.592;10.044;2023-01-10T08:43:56;6.90;99.90
354;DHT22;165;53.592;10.044;2023-01-10T08:46:22;6.90;99.90
354;DHT22;165;53.592;10.044;2023-01-10T08:48:47;7.00;99.90
354;DHT22;165;53.592;10.044;2023-01-10T08:51:13;7.00;99.90
354;DHT22;165;53.592;10.044;2023-01-10T08:53:39;7.00;99.90
354;DHT22;165;53.592;10.044;2023-01-10T08:56:04;7.10;99.90
354;DHT22;165;53.592;10.044;2023-01-10T08:58:30;7.10;99.90
354;DHT22;165;53.592;10.044;2023-01-10T09:00:55;7.10;99.90
354;DHT22;165;53.592;10.044;2023-01-10T09:03:21;7.10;99.90
354;DHT22;165;53.592;10.044;2023-01-10T09:05:46;7.10;99.90
354;DHT22;165;53.592;10.044;2023-01-10T09:08:11;7.10;99.90
354;DHT22;165;53.592;10.044;2023-01-10T09:10:37;7.10;99.90
354;DHT22;165;53.592;10.044;2023-01-10T09:13:02;7.10;99.90
354;DHT22;165;53.592;10.044;2023-01-10T09:15:30;7.20;99.90
354;DHT22;165;53.592;10.044;2023-01-10T09:17:59;7.20;99.90
354;DHT22;165;53.592;10.044;2023-01-10T09:20:26;7.30;99.90
354;DHT22;165;53.592;10.044;2023-01-10T09:22:52;7.20;99.90
354;DHT22;165;53.592;10.044;2023-01-10T09:25:18;7.30;99.90
354;DHT22;165;53.592;10.044;2023-01-10T09:27:43;7.30;99.90
354;DHT22;165;53.592;10.044;2023-01-10T09:30:09;7.40;99.90
354;DHT22;165;53.592;10.044;2023-01-10T09:32:35;7.40;99.90
354;DHT22;165;53.592;10.044;2023-01-10T09:35:01;7.50;99.90
354;DHT22;165;53.592;10.044;2023-01-10T09:37:26;7.70;99.90
354;DHT22;165;53.592;10.044;2023-01-10T09:39:51;8.00;99.90
354;DHT22;165;53.592;10.044;2023-01-10T09:42:38;8.20;99.90
354;DHT22;165;53.592;10.044;2023-01-10T09:45:28;8.40;99.90
354;DHT22;165;53.592;10.044;2023-01-10T09:48:02;8.50;99.90
354;DHT22;165;53.592;10.044;2023-01-10T09:50:45;8.30;99.90
354;DHT22;165;53.592;10.044;2023-01-10T09:53:20;8.20;99.90
354;DHT22;165;53.592;10.044;2023-01-10T09:55:55;7.90;99.90
354;DHT22;165;53.592;10.044;2023-01-10T09:58:26;7.80;99.90
354;DHT22;165;53.592;10.044;2023-01-10T10:06:10;7.70;99.90
354;DHT22;165;53.592;10.044;2023-01-10T10:08:36;7.70;99.90
354;DHT22;165;53.592;10.044;2023-01-10T10:13:59;7.60;99.90
354;DHT22;165;53.592;10.044;2023-01-10T10:19:37;7.80;99.90
354;DHT22;165;53.592;10.044;2023-01-10T10:22:15;7.90;99.90
354;DHT22;165;53.592;10.044;2023-01-10T10:24:55;8.00;99.90
354;DHT22;165;53.592;10.044;2023-01-10T10:27:34;8.00;99.90
354;DHT22;165;53.592;10.044;2023-01-10T10:30:14;7.90;99.90
354;DHT22;165;53.592;10.044;2023-01-10T10:33:04;7.80;99.90
354;DHT22;165;53.592;10.044;2023-01-10T10:35:44;7.80;99.90
354;DHT22;165;53.592;10.044;2023-01-10T10:38:31;7.70;99.90
354;DHT22;165;53.592;10.044;2023-01-10T10:40:59;7.70;99.90
354;DHT22;165;53.592;10.044;2023-01-10T10:43:30;7.60;99.90
354;DHT22;165;53.592;10.044;2023-01-10T10:46:01;7.60;99.90
354;DHT22;165;53.592;10.044;2023-01-10T10:48:35;7.60;99.90
354;DHT22;165;53.592;10.044;2023-01-10T10:51:13;7.60;99.90
354;DHT22;165;53.592;10.044;2023-01-10T10:53:41;7.50;99.90
354;DHT22;165;53.592;10.044;2023-01-10T10:56:12;7.50;99.90
354;DHT22;165;53.592;10.044;2023-01-10T10:58:39;7.60;99.90
354;DHT22;165;53.592;10.044;2023-01-10T11:01:09;7.60;99.90
354;DHT22;165;53.592;10.044;2023-01-10T11:06:13;7.60;99.90
354;DHT22;165;53.592;10.044;2023-01-10T11:08:43;7.60;99.90
354;DHT22;165;53.592;10.044;2023-01-10T11:11:21;7.60;99.90
354;DHT22;165;53.592;10.044;2023-01-10T11:13:55;7.70;99.90
354;DHT22;165;53.592;10.044;2023-01-10T11:16:30;7.90;99.90
354;DHT22;165;53.592;10.044;2023-01-10T11:21:58;8.10;99.90
354;DHT22;165;53.592;10.044;2023-01-10T11:24:36;8.10;99.90
354;DHT22;165;53.592;10.044;2023-01-10T11:27:15;8.10;99.90
354;DHT22;165;53.592;10.044;2023-01-10T11:29:44;8.00;99.90
354;DHT22;165;53.592;10.044;2023-01-10T11:32:14;8.10;99.90
354;DHT22;165;53.592;10.044;2023-01-10T11:35:02;8.00;99.90
354;DHT22;165;53.592;10.044;2023-01-10T11:37:33;8.00;99.90
354;DHT22;165;53.592;10.044;2023-01-10T11:40:16;8.00;99.90
354;DHT22;165;53.592;10.044;2023-01-10T11:42:42;8.20;99.90
354;DHT22;165;53.592;10.044;2023-01-10T11:45:21;8.20;99.90
354;DHT22;165;53.592;10.044;2023-01-10T11:48:17;8.20;99.90
354;DHT22;165;53.592;10.044;2023-01-10T11:50:48;8.20;99.90
354;DHT22;165;53.592;10.044;2023-01-10T11:53:40;8.20;99.90
354;DHT22;165;53.592;10.044;2023-01-10T11:56:09;8.10;99.90
354;DHT22;165;53.592;10.044;2023-01-10T11:58:36;8.10;99.90
354;DHT22;165;53.592;10.044;2023-01-10T12:01:02;8.10;99.90
354;DHT22;165;53.592;10.044;2023-01-10T12:03:33;8.10;99.90
354;DHT22;165;53.592;10.044;2023-01-10T12:08:29;8.10;99.90
354;DHT22;165;53.592;10.044;2023-01-10T12:11:05;8.10;99.90
354;DHT22;165;53.592;10.044;2023-01-10T12:13:46;8.10;99.90
354;DHT22;165;53.592;10.044;2023-01-10T12:16:26;8.00;99.90
354;DHT22;165;53.592;10.044;2023-01-10T12:18:54;8.10;99.90
354;DHT22;165;53.592;10.044;2023-01-10T12:21:40;8.10;99.90
354;DHT22;165;53.592;10.044;2023-01-10T12:24:29;8.20;99.90
354;DHT22;165;53.592;10.044;2023-01-10T12:26:58;8.30;99.90
354;DHT22;165;53.592;10.044;2023-01-10T12:29:32;8.30;99.90
354;DHT22;165;53.592;10.044;2023-01-10T12:31:59;8.30;99.90
354;DHT22;165;53.592;10.044;2023-01-10T12:34:33;8.20;99.90
354;DHT22;165;53.592;10.044;2023-01-10T12:37:21;8.30;99.90
354;DHT22;165;53.592;10.044;2023-01-10T12:40:03;8.30;99.90
354;DHT22;165;53.592;10.044;2023-01-10T12:42:55;8.40;99.90
354;DHT22;165;53.592;10.044;2023-01-10T12:45:25;8.40;99.90
354;DHT22;165;53.592;10.044;2023-01-10T12:48:02;8.50;99.90
354;DHT22;165;53.592;10.044;2023-01-10T12:50:34;8.50;99.90
354;DHT22;165;53.592;10.044;2023-01-10T12:53:31;8.50;99.90
354;DHT22;165;53.592;10.044;2023-01-10T12:56:01;8.60;99.90
354;DHT22;165;53.592;10.044;2023-01-10T13:01:06;8.70;99.90
354;DHT22;165;53.592;10.044;2023-01-10T13:03:33;8.60;99.90
354;DHT22;165;53.592;10.044;2023-01-10T13:06:00;8.60;99.90
354;DHT22;165;53.592;10.044;2023-01-10T13:08:29;8.60;99.90
354;DHT22;165;53.592;10.044;2023-01-10T13:10:57;8.60;99.90
354;DHT22;165;53.592;10.044;2023-01-10T13:13:36;8.60;99.90
354;DHT22;165;53.592;10.044;2023-01-10T13:16:20;8.70;99.90
354;DHT22;165;53.592;10.044;2023-01-10T13:19:22;8.60;99.90
354;DHT22;165;53.592;10.044;2023-01-10T13:21:48;8.60;99.90
354;DHT22;165;53.592;10.044;2023-01-10T13:26:57;8.50;99.90
354;DHT22;165;53.592;10.044;2023-01-10T13:29:26;8.50;99.90
354;DHT22;165;53.592;10.044;2023-01-10T13:31:54;8.60;99.90
354;DHT22;165;53.592;10.044;2023-01-10T13:34:20;8.60;99.90
354;DHT22;165;53.592;10.044;2023-01-10T13:36:49;8.60;99.90
354;DHT22;165;53.592;10.044;2023-01-10T13:39:36;8.60;99.90
354;DHT22;165;53.592;10.044;2023-01-10T13:44:28;8.70;99.90
354;DHT22;165;53.592;10.044;2023-01-10T13:46:53;8.60;99.90
354;DHT22;165;53.592;10.044;2023-01-10T13:49:25;8.60;99.90
354;DHT22;165;53.592;10.044;2023-01-10T13:52:27;8.60;99.90
354;DHT22;165;53.592;10.044;2023-01-10T13:54:58;8.50;99.90
354;DHT22;165;53.592;10.044;2023-01-10T14:02:52;8.40;99.90
354;DHT22;165;53.592;10.044;2023-01-10T14:05:18;8.40;99.90
354;DHT22;165;53.592;10.044;2023-01-10T14:07:48;8.40;99.90
354;DHT22;165;53.592;10.044;2023-01-10T14:10:32;8.40;99.90
354;DHT22;165;53.592;10.044;2023-01-10T14:13:01;8.30;99.90
354;DHT22;165;53.592;10.044;2023-01-10T14:15:40;8.30;99.90
354;DHT22;165;53.592;10.044;2023-01-10T14:18:23;8.20;99.90
354;DHT22;165;53.592;10.044;2023-01-10T14:21:07;8.20;99.90
354;DHT22;165;53.592;10.044;2023-01-10T14:23:41;8.20;99.90
354;DHT22;165;53.592;10.044;2023-01-10T14:26:17;8.20;99.90
354;DHT22;165;53.592;10.044;2023-01-10T14:28:45;8.20;99.90
354;DHT22;165;53.592;10.044;2023-01-10T14:31:19;8.20;99.90
354;DHT22;165;53.592;10.044;2023-01-10T14:33:46;8.20;99.90
354;DHT22;165;53.592;10.044;2023-01-10T14:36:23;8.20;99.90
354;DHT22;165;53.592;10.044;2023-01-10T14:38:53;8.20;99.90
354;DHT22;165;53.592;10.044;2023-01-10T14:41:26;8.10;99.90
354;DHT22;165;53.592;10.044;2023-01-10T14:44:18;8.10;99.90
354;DHT22;165;53.592;10.044;2023-01-10T14:49:20;8.10;99.90
354;DHT22;165;53.592;10.044;2023-01-10T14:51:46;8.00;99.90
354;DHT22;165;53.592;10.044;2023-01-10T14:54:13;8.00;99.90
354;DHT22;165;53.592;10.044;2023-01-10T14:56:41;8.00;99.90
354;DHT22;165;53.592;10.044;2023-01-10T14:59:23;7.90;99.90
354;DHT22;165;53.592;10.044;2023-01-10T15:01:59;7.90;99.90
354;DHT22;165;53.592;10.044;2023-01-10T15:04:30;7.90;99.90
354;DHT22;165;53.592;10.044;2023-01-10T15:07:01;7.90;99.90
354;DHT22;165;53.592;10.044;2023-01-10T15:09:33;7.80;99.90
354;DHT22;165;53.592;10.044;2023-01-10T15:12:01;7.80;99.90
354;DHT22;165;53.592;10.044;2023-01-10T15:14:28;7.80;99.90
354;DHT22;165;53.592;10.044;2023-01-10T15:16:58;7.80;99.90
354;DHT22;165;53.592;10.044;2023-01-10T15:19:25;7.80;99.90
354;DHT22;165;53.592;10.044;2023-01-10T15:21:52;7.90;99.90
354;DHT22;165;53.592;10.044;2023-01-10T15:24:32;7.90;99.90
354;DHT22;165;53.592;10.044;2023-01-10T15:27:03;7.90;99.90
354;DHT22;165;53.592;10.044;2023-01-10T15:29:29;7.90;99.90
354;DHT22;165;53.592;10.044;2023-01-10T15:32:09;7.90;99.90
354;DHT22;165;53.592;10.044;2023-01-10T15:34:36;7.90;99.90
354;DHT22;165;53.592;10.044;2023-01-10T15:37:02;7.90;99.90
354;DHT22;165;53.592;10.044;2023-01-10T15:39:36;7.90;99.90
354;DHT22;165;53.592;10.044;2023-01-10T15:42:08;7.80;99.90
354;DHT22;165;53.592;10.044;2023-01-10T15:47:02;7.90;99.90
354;DHT22;165;53.592;10.044;2023-01-10T15:49:28;7.80;99.90
354;DHT22;165;53.592;10.044;2023-01-10T15:51:53;7.80;99.90
354;DHT22;165;53.592;10.044;2023-01-10T15:57:03;7.60;99.90
354;DHT22;165;53.592;10.044;2023-01-10T15:59:33;7.60;99.90
354;DHT22;165;53.592;10.044;2023-01-10T16:02:28;7.60;99.90
354;DHT22;165;53.592;10.044;2023-01-10T16:04:56;7.60;99.90
354;DHT22;165;53.592;10.044;2023-01-10T16:07:31;7.60;99.90
354;DHT22;165;53.592;10.044;2023-01-10T16:10:06;7.60;99.90
354;DHT22;165;53.592;10.044;2023-01-10T16:12:40;7.60;99.90
354;DHT22;165;53.592;10.044;2023-01-10T16:15:18;7.60;99.90
354;DHT22;165;53.592;10.044;2023-01-10T16:17:45;7.60;99.90
354;DHT22;165;53.592;10.044;2023-01-10T16:20:15;7.60;99.90
354;DHT22;165;53.592;10.044;2023-01-10T16:22:41;7.60;99.90
354;DHT22;165;53.592;10.044;2023-01-10T16:25:13;7.60;99.90
354;DHT22;165;53.592;10.044;2023-01-10T16:27:39;7.50;99.90
354;DHT22;165;53.592;10.044;2023-01-10T16:30:05;7.60;99.90
354;DHT22;165;53.592;10.044;2023-01-10T16:32:30;7.50;99.90
354;DHT22;165;53.592;10.044;2023-01-10T16:34:56;7.50;99.90
354;DHT22;165;53.592;10.044;2023-01-10T16:37:21;7.50;99.90
354;DHT22;165;53.592;10.044;2023-01-10T16:39:47;7.50;99.90
354;DHT22;165;53.592;10.044;2023-01-10T16:42:12;7.40;99.90
354;DHT22;165;53.592;10.044;2023-01-10T16:44:38;7.40;99.90
354;DHT22;165;53.592;10.044;2023-01-10T16:47:03;7.40;99.90
354;DHT22;165;53.592;10.044;2023-01-10T16:49:29;7.40;99.90
354;DHT22;165;53.592;10.044;2023-01-10T16:51:54;7.30;99.90
354;DHT22;165;53.592;10.044;2023-01-10T16:54:21;7.40;99.90
354;DHT22;165;53.592;10.044;2023-01-10T16:56:48;7.30;99.90
354;DHT22;165;53.592;10.044;2023-01-10T16:59:14;7.30;99.90
354;DHT22;165;53.592;10.044;2023-01-10T17:01:43;7.40;99.90
354;DHT22;165;53.592;10.044;2023-01-10T17:04:19;7.30;99.90
354;DHT22;165;53.592;10.044;2023-01-10T17:06:45;7.30;99.90
354;DHT22;165;53.592;10.044;2023-01-10T17:09:23;7.30;99.90
354;DHT22;165;53.592;10.044;2023-01-10T17:11:53;7.30;99.90
354;DHT22;165;53.592;10.044;2023-01-10T17:14:19;7.20;99.90
354;DHT22;165;53.592;10.044;2023-01-10T17:16:44;7.20;99.90
354;DHT22;165;53.592;10.044;2023-01-10T17:19:10;7.30;99.90
354;DHT22;165;53.592;10.044;2023-01-10T17:21:35;7.20;99.90
354;DHT22;165;53.592;10.044;2023-01-10T17:24:01;7.10;99.90
354;DHT22;165;53.592;10.044;2023-01-10T17:26:26;7.10;99.90
354;DHT22;165;53.592;10.044;2023-01-10T17:28:52;7.20;99.90
354;DHT22;165;53.592;10.044;2023-01-10T17:31:17;7.10;99.90
354;DHT22;165;53.592;10.044;2023-01-10T17:33:43;7.10;99.90
354;DHT22;165;53.592;10.044;2023-01-10T17:36:09;7.10;99.90
354;DHT22;165;53.592;10.044;2023-01-10T17:38:37;7.10;99.90
354;DHT22;165;53.592;10.044;2023-01-10T17:41:08;7.10;99.90
354;DHT22;165;53.592;10.044;2023-01-10T17:43:34;7.10;99.90
354;DHT22;165;53.592;10.044;2023-01-10T17:46:02;7.10;99.90
354;DHT22;165;53.592;10.044;2023-01-10T17:48:27;7.00;99.90
354;DHT22;165;53.592;10.044;2023-01-10T17:50:58;7.10;99.90